Flight Track Log - Related Links

Times and Time Zones

All times are in EST time to prevent confusion due to time zone crossing. See the SKQ223 flight status page for this flight to view local times or setup timezone preferences in your user account.

Time Position Orientation Groundspeed Altitude Reporting Facility
EST Latitude Longitude Course Direction KTS MPH feet Rate Location/Type
Thu 01:53:00 AM 41.9946 -87.5945 114° Southeast  Level Estimated
Thu 01:54:00 AM 41.9705 -87.5333 124° Southeast  Level Estimated
Thu 01:55:00 AM 41.9464 -87.4720 119° Southeast  Level Estimated
Thu 01:56:00 AM 41.9210 -87.4119 120° Southeast  Level FlightAware Approximate
Thu 01:57:00 AM 41.8955 -87.3518 120° Southeast  Level FlightAware Approximate
Thu 01:58:00 AM 41.8699 -87.2917 120° Southeast  Level FlightAware Approximate
Thu 01:59:00 AM 41.8444 -87.2317 120° Southeast  Level FlightAware Approximate
Thu 02:00:00 AM 41.8188 -87.1717 120° Southeast  Level FlightAware Approximate
Thu 02:01:00 AM 41.7931 -87.1118 120° Southeast  Level FlightAware Approximate
Thu 02:02:00 AM 41.7644 -87.0433 114° Southeast  Level FlightAware Approximate
Thu 02:03:00 AM 41.7435 -86.9802 114° Southeast  Level FlightAware Approximate
Thu 02:04:00 AM 41.7225 -86.9172 114° Southeast  Level FlightAware Approximate
Thu 02:05:00 AM 41.7014 -86.8542 114° Southeast  Level FlightAware Approximate
Thu 02:06:00 AM 41.6767 -86.7938 119° Southeast  Level FlightAware Approximate
Thu 02:07:00 AM 41.6517 -86.7335 119° Southeast  Level FlightAware Approximate
Thu 02:08:00 AM 41.6267 -86.6733 119° Southeast  Level FlightAware Approximate
Thu 02:09:00 AM 41.6016 -86.6131 119° Southeast  Level FlightAware Approximate
Thu 02:10:00 AM 41.5765 -86.5530 119° Southeast  Level FlightAware Approximate
Thu 02:11:00 AM 41.5513 -86.4930 119° Southeast  Level FlightAware Approximate
Thu 02:12:00 AM 41.5263 -86.4328 119° Southeast  Level FlightAware Approximate
Thu 02:13:00 AM 41.5015 -86.3725 119° Southeast  Level FlightAware Approximate
Thu 02:14:00 AM 41.4767 -86.3123 119° Southeast  Level FlightAware Approximate
Thu 02:15:00 AM 41.4518 -86.2521 119° Southeast  Level FlightAware Approximate
Thu 02:16:00 AM 41.4269 -86.1919 119° Southeast  Level FlightAware Approximate
Thu 02:17:00 AM 41.4020 -86.1319 119° Southeast  Level FlightAware Approximate
Thu 02:18:00 AM 41.3771 -86.0718 119° Southeast  Level FlightAware Approximate
Thu 02:19:00 AM 41.3521 -86.0118 119° Southeast  Level FlightAware Approximate
Thu 02:20:00 AM 41.3271 -85.9518 119° Southeast  Level FlightAware Approximate
Thu 02:21:00 AM 41.3022 -85.8918 119° Southeast  Level FlightAware Approximate
Thu 02:22:00 AM 41.2772 -85.8319 119° Southeast  Level FlightAware Approximate
Thu 02:23:00 AM 41.2522 -85.7720 119° Southeast  Level FlightAware Approximate
Thu 02:24:00 AM 41.2271 -85.7122 119° Southeast  Level FlightAware Approximate
Thu 02:25:00 AM 41.2020 -85.6524 119° Southeast  Level FlightAware Approximate
Thu 02:26:00 AM 41.1769 -85.5927 119° Southeast  Level FlightAware Approximate
Thu 02:27:00 AM 41.1517 -85.5330 119° Southeast  Level FlightAware Approximate
Thu 02:28:00 AM 41.1265 -85.4734 119° Southeast  Level FlightAware Approximate
Thu 02:29:00 AM 41.1013 -85.4138 119° Southeast  Level FlightAware Approximate
Thu 02:30:00 AM 41.0760 -85.3542 119° Southeast  Level FlightAware Approximate
Thu 02:31:00 AM 41.0508 -85.2947 119° Southeast  Level FlightAware Approximate
Thu 02:32:00 AM 41.0255 -85.2353 119° Southeast  Level FlightAware Approximate
Thu 02:33:00 AM 41.0001 -85.1758 119° Southeast  Level FlightAware Approximate
Thu 02:34:00 AM 40.9747 -85.1165 119° Southeast  Level FlightAware Approximate
Thu 02:35:00 AM 40.9493 -85.0571 120° Southeast  Level FlightAware Approximate
Thu 02:36:00 AM 40.9239 -84.9979 120° Southeast  Level FlightAware Approximate
Thu 02:37:00 AM 40.8984 -84.9386 120° Southeast  Level FlightAware Approximate
Thu 02:38:00 AM 40.8730 -84.8794 120° Southeast  Level FlightAware Approximate
Thu 02:39:00 AM 40.8474 -84.8203 120° Southeast  Level FlightAware Approximate
Thu 02:40:00 AM 40.8219 -84.7612 120° Southeast  Level FlightAware Approximate
Thu 02:41:00 AM 40.7963 -84.7021 120° Southeast  Level FlightAware Approximate
Thu 02:42:00 AM 40.7707 -84.6432 120° Southeast  Level FlightAware Approximate
Thu 02:43:00 AM 40.7450 -84.5842 120° Southeast  Level FlightAware Approximate
Thu 02:44:00 AM 40.7194 -84.5253 120° Southeast  Level FlightAware Approximate
Thu 02:45:00 AM 40.6937 -84.4664 120° Southeast  Level FlightAware Approximate
Thu 02:46:00 AM 40.6679 -84.4076 120° Southeast  Level FlightAware Approximate
Thu 02:47:00 AM 40.6424 -84.3486 119° Southeast  Level FlightAware Approximate
Thu 02:48:00 AM 40.6175 -84.2892 119° Southeast  Level FlightAware Approximate
Thu 02:49:00 AM 40.5926 -84.2299 119° Southeast  Level FlightAware Approximate
Thu 02:50:00 AM 40.5676 -84.1706 119° Southeast  Level FlightAware Approximate
Thu 02:51:00 AM 40.5426 -84.1113 119° Southeast  Level FlightAware Approximate
Thu 02:52:00 AM 40.5176 -84.0521 119° Southeast  Level FlightAware Approximate
Thu 02:53:00 AM 40.4911 -83.9940 121° Southeast  Level FlightAware Approximate
Thu 02:54:00 AM 40.4646 -83.9359 121° Southeast  Level FlightAware Approximate
Thu 02:55:00 AM 40.4381 -83.8779 121° Southeast  Level FlightAware Approximate
Thu 02:56:00 AM 40.4115 -83.8200 121° Southeast  Level FlightAware Approximate
Thu 02:57:00 AM 40.3849 -83.7621 121° Southeast  Level FlightAware Approximate
Thu 02:58:00 AM 40.3583 -83.7042 121° Southeast  Level FlightAware Approximate
Thu 02:59:00 AM 40.3316 -83.6465 123° Southeast  Level FlightAware Approximate
Thu 03:00:00 AM 40.3033 -83.5900 123° Southeast  Level FlightAware Approximate
Thu 03:01:00 AM 40.2859 -83.5267 108° East  Level FlightAware Approximate
Thu 03:02:00 AM 40.2595 -83.4691 123° Southeast  Level FlightAware Approximate
Thu 03:03:00 AM 40.2342 -83.4104 118° Southeast  Level FlightAware Approximate
Thu 03:04:00 AM 40.2095 -83.3513 122° Southeast  Level FlightAware Approximate
Thu 03:05:00 AM 40.1825 -83.2938 122° Southeast  Level FlightAware Approximate
Thu 03:06:00 AM 40.1555 -83.2364 122° Southeast  Level FlightAware Approximate
Thu 03:07:00 AM 40.1285 -83.1791 122° Southeast  Level FlightAware Approximate
Thu 03:08:00 AM 40.1015 -83.1218 122° Southeast  Level FlightAware Approximate
Thu 03:09:00 AM 40.0798 -83.0732 143° Southeast  Level Estimated
Thu 03:10:00 AM 40.0798 -83.0732 143° Southeast  Level Estimated
Thu 03:11:00 AM 40.0798 -83.0732 143° Southeast  Level Estimated
Thu 03:12:00 AM 40.0798 -83.0732 143° Southeast  Level Estimated
Thu 03:13:00 AM 40.0798 -83.0732 143° Southeast  Level Estimated
Thu 03:14:00 AM 40.0798 -83.0732 143° Southeast  Level Estimated
Thu 03:15:00 AM 40.0798 -83.0732 143° Southeast  Level Estimated
Thu 03:16:00 AM 40.0798 -83.0732 143° Southeast  Level Estimated
Thu 03:17:00 AM 40.0798 -83.0732 143° Southeast  Level Estimated
Thu 03:18:00 AM 40.0798 -83.0732 143° Southeast  Level Estimated
Thu 03:19:00 AM 40.0798 -83.0732 143° Southeast  Level Estimated
Thu 03:20:00 AM 40.0798 -83.0732 143° Southeast  Level Estimated
Thu 03:21:00 AM 40.0798 -83.0732 143° Southeast  Level Estimated
Thu 03:22:00 AM 40.0798 -83.0732 143° Southeast  Level Estimated
Thu 03:23:00 AM 40.0798 -83.0732 143° Southeast  Level Estimated
Thu 03:24:00 AM 40.0798 -83.0732 143° Southeast  Level Estimated
Thu 03:25:00 AM 40.0798 -83.0732 143° Southeast  Level Estimated

Login

Don't have an account? Register now (free) for customized features, flight alerts, and more!